sensor_id;sensor_type;location;lat;lon;timestamp;P1;durP1;ratioP1;P2;durP2;ratioP2
18748;SDS011;9503;53.560;10.246;2023-06-10T00:01:09;14.30;;;5.90;;
18748;SDS011;9503;53.560;10.246;2023-06-10T00:03:36;11.13;;;5.70;;
18748;SDS011;9503;53.560;10.246;2023-06-10T00:06:04;13.80;;;5.43;;
18748;SDS011;9503;53.560;10.246;2023-06-10T00:08:31;12.50;;;5.93;;
18748;SDS011;9503;53.560;10.246;2023-06-10T00:10:58;9.90;;;5.40;;
18748;SDS011;9503;53.560;10.246;2023-06-10T00:13:25;11.53;;;5.33;;
18748;SDS011;9503;53.560;10.246;2023-06-10T00:15:52;12.50;;;5.70;;
18748;SDS011;9503;53.560;10.246;2023-06-10T00:18:18;12.40;;;5.67;;
18748;SDS011;9503;53.560;10.246;2023-06-10T00:20:47;11.33;;;5.30;;
18748;SDS011;9503;53.560;10.246;2023-06-10T00:23:19;14.40;;;5.63;;
18748;SDS011;9503;53.560;10.246;2023-06-10T00:25:45;16.20;;;5.67;;
18748;SDS011;9503;53.560;10.246;2023-06-10T00:28:12;13.20;;;6.03;;
18748;SDS011;9503;53.560;10.246;2023-06-10T00:30:39;14.93;;;5.30;;
18748;SDS011;9503;53.560;10.246;2023-06-10T00:33:06;10.37;;;4.60;;
18748;SDS011;9503;53.560;10.246;2023-06-10T00:35:32;11.97;;;4.87;;
18748;SDS011;9503;53.560;10.246;2023-06-10T00:37:59;8.63;;;5.17;;
18748;SDS011;9503;53.560;10.246;2023-06-10T00:40:27;11.57;;;5.53;;
18748;SDS011;9503;53.560;10.246;2023-06-10T00:42:54;9.27;;;5.03;;
18748;SDS011;9503;53.560;10.246;2023-06-10T00:45:21;6.73;;;4.33;;
18748;SDS011;9503;53.560;10.246;2023-06-10T00:47:47;11.43;;;4.50;;
18748;SDS011;9503;53.560;10.246;2023-06-10T00:50:14;8.40;;;5.00;;
18748;SDS011;9503;53.560;10.246;2023-06-10T00:52:41;7.43;;;4.70;;
18748;SDS011;9503;53.560;10.246;2023-06-10T00:55:09;9.43;;;4.90;;
18748;SDS011;9503;53.560;10.246;2023-06-10T00:57:37;10.27;;;4.80;;
18748;SDS011;9503;53.560;10.246;2023-06-10T01:00:05;13.37;;;5.00;;
18748;SDS011;9503;53.560;10.246;2023-06-10T01:02:33;10.87;;;4.40;;
18748;SDS011;9503;53.560;10.246;2023-06-10T01:05:01;6.93;;;4.23;;
18748;SDS011;9503;53.560;10.246;2023-06-10T01:07:28;11.23;;;4.23;;
18748;SDS011;9503;53.560;10.246;2023-06-10T01:10:01;11.60;;;4.80;;
18748;SDS011;9503;53.560;10.246;2023-06-10T01:12:31;10.07;;;3.90;;
18748;SDS011;9503;53.560;10.246;2023-06-10T01:15:02;15.00;;;5.33;;
18748;SDS011;9503;53.560;10.246;2023-06-10T01:17:29;11.00;;;4.10;;
18748;SDS011;9503;53.560;10.246;2023-06-10T01:19:57;11.93;;;4.20;;
18748;SDS011;9503;53.560;10.246;2023-06-10T01:22:26;7.20;;;4.07;;
18748;SDS011;9503;53.560;10.246;2023-06-10T01:24:57;10.73;;;4.10;;
18748;SDS011;9503;53.560;10.246;2023-06-10T01:27:25;10.17;;;4.10;;
18748;SDS011;9503;53.560;10.246;2023-06-10T01:29:58;9.00;;;4.37;;
18748;SDS011;9503;53.560;10.246;2023-06-10T01:32:32;9.83;;;4.37;;
18748;SDS011;9503;53.560;10.246;2023-06-10T01:35:03;9.43;;;3.97;;
18748;SDS011;9503;53.560;10.246;2023-06-10T01:37:34;11.07;;;4.53;;
18748;SDS011;9503;53.560;10.246;2023-06-10T01:40:05;8.27;;;4.10;;
18748;SDS011;9503;53.560;10.246;2023-06-10T01:42:32;10.33;;;4.03;;
18748;SDS011;9503;53.560;10.246;2023-06-10T01:44:59;8.23;;;4.10;;
18748;SDS011;9503;53.560;10.246;2023-06-10T01:47:26;7.03;;;3.70;;
18748;SDS011;9503;53.560;10.246;2023-06-10T01:49:53;15.20;;;4.43;;
18748;SDS011;9503;53.560;10.246;2023-06-10T01:52:19;12.87;;;4.37;;
18748;SDS011;9503;53.560;10.246;2023-06-10T01:54:47;12.17;;;4.47;;
18748;SDS011;9503;53.560;10.246;2023-06-10T01:57:14;13.87;;;4.30;;
18748;SDS011;9503;53.560;10.246;2023-06-10T01:59:41;10.63;;;4.13;;
18748;SDS011;9503;53.560;10.246;2023-06-10T02:02:09;8.20;;;4.23;;
18748;SDS011;9503;53.560;10.246;2023-06-10T02:04:36;9.40;;;4.00;;
18748;SDS011;9503;53.560;10.246;2023-06-10T02:07:03;7.23;;;3.83;;
18748;SDS011;9503;53.560;10.246;2023-06-10T02:09:30;10.10;;;4.20;;
18748;SDS011;9503;53.560;10.246;2023-06-10T02:12:01;10.93;;;3.67;;
18748;SDS011;9503;53.560;10.246;2023-06-10T02:14:28;10.67;;;3.83;;
18748;SDS011;9503;53.560;10.246;2023-06-10T02:16:54;9.03;;;3.53;;
18748;SDS011;9503;53.560;10.246;2023-06-10T02:19:22;6.13;;;3.90;;
18748;SDS011;9503;53.560;10.246;2023-06-10T02:21:50;8.57;;;3.73;;
18748;SDS011;9503;53.560;10.246;2023-06-10T02:24:16;11.00;;;3.83;;
18748;SDS011;9503;53.560;10.246;2023-06-10T02:26:43;8.67;;;3.83;;
18748;SDS011;9503;53.560;10.246;2023-06-10T02:29:11;8.43;;;4.00;;
18748;SDS011;9503;53.560;10.246;2023-06-10T02:31:38;10.07;;;3.80;;
18748;SDS011;9503;53.560;10.246;2023-06-10T02:34:06;12.37;;;4.10;;
18748;SDS011;9503;53.560;10.246;2023-06-10T02:36:32;9.80;;;4.03;;
18748;SDS011;9503;53.560;10.246;2023-06-10T02:39:00;7.60;;;3.80;;
18748;SDS011;9503;53.560;10.246;2023-06-10T02:41:27;15.83;;;4.50;;
18748;SDS011;9503;53.560;10.246;2023-06-10T02:43:54;10.67;;;3.33;;
18748;SDS011;9503;53.560;10.246;2023-06-10T02:46:22;9.37;;;3.63;;
18748;SDS011;9503;53.560;10.246;2023-06-10T02:48:49;10.27;;;3.73;;
18748;SDS011;9503;53.560;10.246;2023-06-10T02:51:17;7.13;;;3.90;;
18748;SDS011;9503;53.560;10.246;2023-06-10T02:53:43;7.80;;;3.60;;
18748;SDS011;9503;53.560;10.246;2023-06-10T02:56:10;14.33;;;3.87;;
18748;SDS011;9503;53.560;10.246;2023-06-10T02:58:37;8.37;;;3.73;;
18748;SDS011;9503;53.560;10.246;2023-06-10T03:01:04;7.83;;;3.37;;
18748;SDS011;9503;53.560;10.246;2023-06-10T03:03:32;9.73;;;3.60;;
18748;SDS011;9503;53.560;10.246;2023-06-10T03:06:00;8.63;;;3.53;;
18748;SDS011;9503;53.560;10.246;2023-06-10T03:08:27;10.67;;;3.57;;
18748;SDS011;9503;53.560;10.246;2023-06-10T03:10:54;7.13;;;3.30;;
18748;SDS011;9503;53.560;10.246;2023-06-10T03:13:21;10.70;;;3.60;;
18748;SDS011;9503;53.560;10.246;2023-06-10T03:15:48;6.40;;;3.33;;
18748;SDS011;9503;53.560;10.246;2023-06-10T03:18:15;11.73;;;3.33;;
18748;SDS011;9503;53.560;10.246;2023-06-10T03:20:43;8.40;;;3.40;;
18748;SDS011;9503;53.560;10.246;2023-06-10T03:23:10;9.70;;;3.90;;
18748;SDS011;9503;53.560;10.246;2023-06-10T03:25:37;14.63;;;3.77;;
18748;SDS011;9503;53.560;10.246;2023-06-10T03:28:03;10.47;;;4.00;;
18748;SDS011;9503;53.560;10.246;2023-06-10T03:30:30;11.17;;;3.27;;
18748;SDS011;9503;53.560;10.246;2023-06-10T03:32:57;10.03;;;2.80;;
18748;SDS011;9503;53.560;10.246;2023-06-10T03:35:23;9.67;;;2.90;;
18748;SDS011;9503;53.560;10.246;2023-06-10T03:37:52;8.00;;;3.17;;
18748;SDS011;9503;53.560;10.246;2023-06-10T03:40:18;8.33;;;2.93;;
18748;SDS011;9503;53.560;10.246;2023-06-10T03:42:45;11.40;;;3.20;;
18748;SDS011;9503;53.560;10.246;2023-06-10T03:45:11;5.80;;;2.80;;
18748;SDS011;9503;53.560;10.246;2023-06-10T03:47:38;6.97;;;3.23;;
18748;SDS011;9503;53.560;10.246;2023-06-10T03:50:06;8.33;;;3.10;;
18748;SDS011;9503;53.560;10.246;2023-06-10T03:52:33;6.43;;;2.60;;
18748;SDS011;9503;53.560;10.246;2023-06-10T03:55:01;7.23;;;2.63;;
18748;SDS011;9503;53.560;10.246;2023-06-10T03:57:31;12.07;;;3.53;;
18748;SDS011;9503;53.560;10.246;2023-06-10T03:59:58;9.07;;;2.63;;
18748;SDS011;9503;53.560;10.246;2023-06-10T04:02:24;7.70;;;2.80;;
18748;SDS011;9503;53.560;10.246;2023-06-10T04:04:51;6.47;;;2.77;;
18748;SDS011;9503;53.560;10.246;2023-06-10T04:07:17;10.03;;;3.17;;
18748;SDS011;9503;53.560;10.246;2023-06-10T04:09:45;10.13;;;3.13;;
18748;SDS011;9503;53.560;10.246;2023-06-10T04:12:14;4.33;;;2.17;;
18748;SDS011;9503;53.560;10.246;2023-06-10T04:14:41;8.20;;;2.13;;
18748;SDS011;9503;53.560;10.246;2023-06-10T04:17:08;9.93;;;2.27;;
18748;SDS011;9503;53.560;10.246;2023-06-10T04:19:35;7.40;;;2.50;;
18748;SDS011;9503;53.560;10.246;2023-06-10T04:22:02;6.28;;;2.70;;
18748;SDS011;9503;53.560;10.246;2023-06-10T04:24:30;6.05;;;2.33;;
18748;SDS011;9503;53.560;10.246;2023-06-10T04:26:57;6.82;;;2.33;;
18748;SDS011;9503;53.560;10.246;2023-06-10T04:29:25;10.02;;;2.40;;
18748;SDS011;9503;53.560;10.246;2023-06-10T04:31:51;5.10;;;2.33;;
18748;SDS011;9503;53.560;10.246;2023-06-10T04:34:18;7.50;;;2.45;;
18748;SDS011;9503;53.560;10.246;2023-06-10T04:36:44;6.68;;;2.20;;
18748;SDS011;9503;53.560;10.246;2023-06-10T04:39:11;5.32;;;2.08;;
18748;SDS011;9503;53.560;10.246;2023-06-10T04:41:38;4.13;;;2.17;;
18748;SDS011;9503;53.560;10.246;2023-06-10T04:44:04;5.82;;;2.38;;
18748;SDS011;9503;53.560;10.246;2023-06-10T04:46:32;8.27;;;2.40;;
18748;SDS011;9503;53.560;10.246;2023-06-10T04:48:59;4.75;;;2.00;;
18748;SDS011;9503;53.560;10.246;2023-06-10T04:51:26;7.32;;;2.20;;
18748;SDS011;9503;53.560;10.246;2023-06-10T04:53:52;6.40;;;2.00;;
18748;SDS011;9503;53.560;10.246;2023-06-10T04:56:19;8.93;;;2.58;;
18748;SDS011;9503;53.560;10.246;2023-06-10T04:58:47;5.20;;;2.10;;
18748;SDS011;9503;53.560;10.246;2023-06-10T05:01:13;5.75;;;2.08;;
18748;SDS011;9503;53.560;10.246;2023-06-10T05:03:41;8.02;;;2.85;;
18748;SDS011;9503;53.560;10.246;2023-06-10T05:06:08;5.20;;;2.33;;
18748;SDS011;9503;53.560;10.246;2023-06-10T05:08:35;7.72;;;2.65;;
18748;SDS011;9503;53.560;10.246;2023-06-10T05:11:01;7.35;;;2.28;;
18748;SDS011;9503;53.560;10.246;2023-06-10T05:13:28;6.75;;;2.15;;
18748;SDS011;9503;53.560;10.246;2023-06-10T05:15:54;5.18;;;2.00;;
18748;SDS011;9503;53.560;10.246;2023-06-10T05:18:21;8.57;;;2.30;;
18748;SDS011;9503;53.560;10.246;2023-06-10T05:20:49;11.38;;;2.60;;
18748;SDS011;9503;53.560;10.246;2023-06-10T05:23:16;6.35;;;2.28;;
18748;SDS011;9503;53.560;10.246;2023-06-10T05:25:42;12.45;;;2.65;;
18748;SDS011;9503;53.560;10.246;2023-06-10T05:28:09;7.68;;;2.65;;
18748;SDS011;9503;53.560;10.246;2023-06-10T05:30:36;5.53;;;2.45;;
18748;SDS011;9503;53.560;10.246;2023-06-10T05:33:03;6.18;;;2.10;;
18748;SDS011;9503;53.560;10.246;2023-06-10T05:35:29;4.57;;;2.17;;
18748;SDS011;9503;53.560;10.246;2023-06-10T05:37:57;5.47;;;2.10;;
18748;SDS011;9503;53.560;10.246;2023-06-10T05:40:24;9.30;;;2.80;;
18748;SDS011;9503;53.560;10.246;2023-06-10T05:42:51;11.35;;;2.70;;
18748;SDS011;9503;53.560;10.246;2023-06-10T05:45:17;8.90;;;2.47;;
18748;SDS011;9503;53.560;10.246;2023-06-10T05:47:44;9.40;;;2.25;;
18748;SDS011;9503;53.560;10.246;2023-06-10T05:50:10;7.63;;;2.20;;
18748;SDS011;9503;53.560;10.246;2023-06-10T05:52:37;7.75;;;2.70;;
18748;SDS011;9503;53.560;10.246;2023-06-10T05:55:07;6.55;;;2.38;;
18748;SDS011;9503;53.560;10.246;2023-06-10T05:57:34;8.00;;;2.70;;
18748;SDS011;9503;53.560;10.246;2023-06-10T06:00:01;11.60;;;3.05;;
18748;SDS011;9503;53.560;10.246;2023-06-10T06:02:27;3.40;;;2.10;;
18748;SDS011;9503;53.560;10.246;2023-06-10T06:04:54;6.90;;;2.70;;
18748;SDS011;9503;53.560;10.246;2023-06-10T06:07:20;4.57;;;2.30;;
18748;SDS011;9503;53.560;10.246;2023-06-10T06:09:48;11.48;;;3.10;;
18748;SDS011;9503;53.560;10.246;2023-06-10T06:12:16;9.57;;;2.95;;
18748;SDS011;9503;53.560;10.246;2023-06-10T06:14:42;7.43;;;2.80;;
18748;SDS011;9503;53.560;10.246;2023-06-10T06:17:09;6.45;;;2.53;;
18748;SDS011;9503;53.560;10.246;2023-06-10T06:19:36;6.13;;;2.30;;
18748;SDS011;9503;53.560;10.246;2023-06-10T06:22:03;5.82;;;2.95;;
18748;SDS011;9503;53.560;10.246;2023-06-10T06:24:30;8.88;;;2.33;;
18748;SDS011;9503;53.560;10.246;2023-06-10T06:26:56;3.78;;;2.08;;
18748;SDS011;9503;53.560;10.246;2023-06-10T06:29:24;5.57;;;2.60;;
18748;SDS011;9503;53.560;10.246;2023-06-10T06:31:51;6.38;;;2.45;;
18748;SDS011;9503;53.560;10.246;2023-06-10T06:34:18;10.48;;;2.55;;
18748;SDS011;9503;53.560;10.246;2023-06-10T06:36:44;14.10;;;2.60;;
18748;SDS011;9503;53.560;10.246;2023-06-10T06:39:11;6.75;;;2.67;;
18748;SDS011;9503;53.560;10.246;2023-06-10T06:41:38;5.13;;;2.35;;
18748;SDS011;9503;53.560;10.246;2023-06-10T06:44:05;6.43;;;2.72;;
18748;SDS011;9503;53.560;10.246;2023-06-10T06:46:33;9.05;;;2.80;;
18748;SDS011;9503;53.560;10.246;2023-06-10T06:49:00;7.82;;;2.42;;
18748;SDS011;9503;53.560;10.246;2023-06-10T06:51:26;8.52;;;2.83;;
18748;SDS011;9503;53.560;10.246;2023-06-10T06:53:53;6.82;;;2.83;;
18748;SDS011;9503;53.560;10.246;2023-06-10T06:56:23;8.82;;;2.53;;
18748;SDS011;9503;53.560;10.246;2023-06-10T06:58:50;10.80;;;3.17;;
18748;SDS011;9503;53.560;10.246;2023-06-10T07:01:16;9.05;;;3.03;;
18748;SDS011;9503;53.560;10.246;2023-06-10T07:03:44;13.30;;;2.80;;
18748;SDS011;9503;53.560;10.246;2023-06-10T07:06:11;5.82;;;2.38;;
18748;SDS011;9503;53.560;10.246;2023-06-10T07:08:38;7.05;;;2.78;;
18748;SDS011;9503;53.560;10.246;2023-06-10T07:11:05;9.23;;;3.00;;
18748;SDS011;9503;53.560;10.246;2023-06-10T07:13:32;11.57;;;3.30;;
18748;SDS011;9503;53.560;10.246;2023-06-10T07:15:58;5.63;;;2.50;;
18748;SDS011;9503;53.560;10.246;2023-06-10T07:18:25;9.30;;;2.90;;
18748;SDS011;9503;53.560;10.246;2023-06-10T07:20:53;9.15;;;3.00;;
18748;SDS011;9503;53.560;10.246;2023-06-10T07:23:19;8.18;;;3.30;;
18748;SDS011;9503;53.560;10.246;2023-06-10T07:25:46;7.40;;;2.78;;
18748;SDS011;9503;53.560;10.246;2023-06-10T07:28:13;8.30;;;3.42;;
18748;SDS011;9503;53.560;10.246;2023-06-10T07:30:39;8.82;;;2.75;;
18748;SDS011;9503;53.560;10.246;2023-06-10T07:33:06;9.00;;;2.63;;
18748;SDS011;9503;53.560;10.246;2023-06-10T07:35:33;9.05;;;2.80;;
18748;SDS011;9503;53.560;10.246;2023-06-10T07:38:01;7.72;;;2.92;;
18748;SDS011;9503;53.560;10.246;2023-06-10T07:40:27;9.98;;;2.80;;
18748;SDS011;9503;53.560;10.246;2023-06-10T07:42:54;5.82;;;2.42;;
18748;SDS011;9503;53.560;10.246;2023-06-10T07:45:21;10.05;;;2.88;;
18748;SDS011;9503;53.560;10.246;2023-06-10T07:47:48;4.75;;;2.65;;
18748;SDS011;9503;53.560;10.246;2023-06-10T07:50:15;7.97;;;2.90;;
18748;SDS011;9503;53.560;10.246;2023-06-10T07:52:42;7.28;;;2.40;;
18748;SDS011;9503;53.560;10.246;2023-06-10T07:55:10;4.80;;;2.55;;
18748;SDS011;9503;53.560;10.246;2023-06-10T07:57:36;4.32;;;2.78;;
18748;SDS011;9503;53.560;10.246;2023-06-10T08:00:04;12.43;;;3.25;;
18748;SDS011;9503;53.560;10.246;2023-06-10T08:02:31;7.50;;;2.75;;
18748;SDS011;9503;53.560;10.246;2023-06-10T08:04:58;8.23;;;2.88;;
18748;SDS011;9503;53.560;10.246;2023-06-10T08:07:25;5.57;;;2.95;;
18748;SDS011;9503;53.560;10.246;2023-06-10T08:09:51;10.15;;;3.28;;
18748;SDS011;9503;53.560;10.246;2023-06-10T08:12:19;8.40;;;3.22;;
18748;SDS011;9503;53.560;10.246;2023-06-10T08:14:46;9.35;;;3.38;;
18748;SDS011;9503;53.560;10.246;2023-06-10T08:17:12;5.38;;;2.67;;
18748;SDS011;9503;53.560;10.246;2023-06-10T08:19:39;9.68;;;3.05;;
18748;SDS011;9503;53.560;10.246;2023-06-10T08:22:06;10.18;;;3.15;;
18748;SDS011;9503;53.560;10.246;2023-06-10T08:24:32;10.68;;;3.35;;
18748;SDS011;9503;53.560;10.246;2023-06-10T08:26:59;8.00;;;3.30;;
18748;SDS011;9503;53.560;10.246;2023-06-10T08:29:27;6.25;;;2.63;;
18748;SDS011;9503;53.560;10.246;2023-06-10T08:31:55;10.00;;;3.45;;
18748;SDS011;9503;53.560;10.246;2023-06-10T08:34:21;4.82;;;2.72;;
18748;SDS011;9503;53.560;10.246;2023-06-10T08:36:48;7.93;;;3.53;;
18748;SDS011;9503;53.560;10.246;2023-06-10T08:39:18;11.88;;;3.92;;
18748;SDS011;9503;53.560;10.246;2023-06-10T08:41:46;7.90;;;3.65;;
18748;SDS011;9503;53.560;10.246;2023-06-10T08:44:25;7.55;;;3.35;;
18748;SDS011;9503;53.560;10.246;2023-06-10T08:46:55;8.90;;;3.25;;
18748;SDS011;9503;53.560;10.246;2023-06-10T08:49:26;7.78;;;3.35;;
18748;SDS011;9503;53.560;10.246;2023-06-10T08:51:58;5.95;;;3.20;;
18748;SDS011;9503;53.560;10.246;2023-06-10T08:54:28;7.43;;;3.05;;
18748;SDS011;9503;53.560;10.246;2023-06-10T08:56:59;7.60;;;3.05;;
18748;SDS011;9503;53.560;10.246;2023-06-10T08:59:26;7.28;;;3.33;;
18748;SDS011;9503;53.560;10.246;2023-06-10T09:01:54;8.05;;;3.13;;
18748;SDS011;9503;53.560;10.246;2023-06-10T09:04:21;8.52;;;3.30;;
18748;SDS011;9503;53.560;10.246;2023-06-10T09:06:50;8.23;;;3.45;;
18748;SDS011;9503;53.560;10.246;2023-06-10T09:09:17;9.18;;;3.33;;
18748;SDS011;9503;53.560;10.246;2023-06-10T09:11:44;9.00;;;2.97;;
18748;SDS011;9503;53.560;10.246;2023-06-10T09:14:11;7.38;;;4.20;;
18748;SDS011;9503;53.560;10.246;2023-06-10T09:16:38;9.55;;;3.28;;
18748;SDS011;9503;53.560;10.246;2023-06-10T09:19:06;10.77;;;3.67;;
18748;SDS011;9503;53.560;10.246;2023-06-10T09:21:34;9.93;;;3.30;;
18748;SDS011;9503;53.560;10.246;2023-06-10T09:24:00;7.72;;;3.70;;
18748;SDS011;9503;53.560;10.246;2023-06-10T09:26:28;8.65;;;3.97;;
18748;SDS011;9503;53.560;10.246;2023-06-10T09:28:57;13.07;;;3.35;;
18748;SDS011;9503;53.560;10.246;2023-06-10T09:31:28;8.88;;;3.72;;
18748;SDS011;9503;53.560;10.246;2023-06-10T09:34:04;8.65;;;4.03;;
18748;SDS011;9503;53.560;10.246;2023-06-10T09:36:33;8.93;;;4.07;;
18748;SDS011;9503;53.560;10.246;2023-06-10T09:39:00;9.20;;;3.90;;
18748;SDS011;9503;53.560;10.246;2023-06-10T09:41:31;8.05;;;3.83;;
18748;SDS011;9503;53.560;10.246;2023-06-10T09:43:58;6.47;;;3.63;;
18748;SDS011;9503;53.560;10.246;2023-06-10T09:46:25;7.70;;;3.38;;
18748;SDS011;9503;53.560;10.246;2023-06-10T09:48:57;12.45;;;3.60;;
18748;SDS011;9503;53.560;10.246;2023-06-10T09:51:25;10.10;;;4.00;;
18748;SDS011;9503;53.560;10.246;2023-06-10T09:53:52;7.07;;;3.97;;
18748;SDS011;9503;53.560;10.246;2023-06-10T09:56:20;7.93;;;3.90;;
18748;SDS011;9503;53.560;10.246;2023-06-10T09:58:49;6.32;;;3.50;;
18748;SDS011;9503;53.560;10.246;2023-06-10T10:01:19;7.68;;;4.30;;
18748;SDS011;9503;53.560;10.246;2023-06-10T10:03:46;8.05;;;3.63;;
18748;SDS011;9503;53.560;10.246;2023-06-10T10:06:14;9.50;;;4.18;;
18748;SDS011;9503;53.560;10.246;2023-06-10T10:08:43;8.30;;;3.78;;
18748;SDS011;9503;53.560;10.246;2023-06-10T10:11:10;7.25;;;3.80;;
18748;SDS011;9503;53.560;10.246;2023-06-10T10:13:36;11.38;;;3.80;;
18748;SDS011;9503;53.560;10.246;2023-06-10T10:16:04;7.55;;;3.92;;
18748;SDS011;9503;53.560;10.246;2023-06-10T10:18:41;7.40;;;3.88;;
18748;SDS011;9503;53.560;10.246;2023-06-10T10:21:12;7.07;;;3.88;;
18748;SDS011;9503;53.560;10.246;2023-06-10T10:23:47;7.88;;;3.83;;
18748;SDS011;9503;53.560;10.246;2023-06-10T10:26:19;7.95;;;3.80;;
18748;SDS011;9503;53.560;10.246;2023-06-10T10:28:48;9.20;;;3.92;;
18748;SDS011;9503;53.560;10.246;2023-06-10T10:31:19;9.65;;;3.90;;
18748;SDS011;9503;53.560;10.246;2023-06-10T10:33:48;7.70;;;3.70;;
18748;SDS011;9503;53.560;10.246;2023-06-10T10:36:21;7.03;;;3.50;;
18748;SDS011;9503;53.560;10.246;2023-06-10T10:38:49;6.55;;;3.58;;
18748;SDS011;9503;53.560;10.246;2023-06-10T10:41:16;5.97;;;3.97;;
18748;SDS011;9503;53.560;10.246;2023-06-10T10:43:44;5.07;;;3.63;;
18748;SDS011;9503;53.560;10.246;2023-06-10T10:46:13;9.95;;;4.13;;
18748;SDS011;9503;53.560;10.246;2023-06-10T10:48:40;6.93;;;3.85;;
18748;SDS011;9503;53.560;10.246;2023-06-10T10:51:08;8.18;;;3.95;;
18748;SDS011;9503;53.560;10.246;2023-06-10T10:53:36;7.75;;;4.13;;
18748;SDS011;9503;53.560;10.246;2023-06-10T10:56:06;8.38;;;4.57;;
18748;SDS011;9503;53.560;10.246;2023-06-10T10:58:34;8.57;;;4.50;;
18748;SDS011;9503;53.560;10.246;2023-06-10T11:01:09;8.00;;;3.85;;
18748;SDS011;9503;53.560;10.246;2023-06-10T11:03:41;5.93;;;3.85;;
18748;SDS011;9503;53.560;10.246;2023-06-10T11:06:11;10.07;;;4.22;;
18748;SDS011;9503;53.560;10.246;2023-06-10T11:08:46;9.75;;;4.70;;
18748;SDS011;9503;53.560;10.246;2023-06-10T11:11:23;7.78;;;4.50;;
18748;SDS011;9503;53.560;10.246;2023-06-10T11:14:07;8.18;;;4.30;;
18748;SDS011;9503;53.560;10.246;2023-06-10T11:16:38;7.72;;;4.18;;
18748;SDS011;9503;53.560;10.246;2023-06-10T11:19:07;8.85;;;4.30;;
18748;SDS011;9503;53.560;10.246;2023-06-10T11:21:37;9.95;;;4.18;;
18748;SDS011;9503;53.560;10.246;2023-06-10T11:24:23;10.48;;;4.53;;
18748;SDS011;9503;53.560;10.246;2023-06-10T11:26:51;11.35;;;4.70;;
18748;SDS011;9503;53.560;10.246;2023-06-10T11:29:17;10.63;;;4.82;;
18748;SDS011;9503;53.560;10.246;2023-06-10T11:31:46;7.32;;;4.30;;
18748;SDS011;9503;53.560;10.246;2023-06-10T11:34:20;9.43;;;4.15;;
18748;SDS011;9503;53.560;10.246;2023-06-10T11:36:50;6.90;;;4.47;;
18748;SDS011;9503;53.560;10.246;2023-06-10T11:39:18;9.90;;;4.20;;
18748;SDS011;9503;53.560;10.246;2023-06-10T11:41:46;8.80;;;4.72;;
18748;SDS011;9503;53.560;10.246;2023-06-10T11:44:15;10.05;;;4.25;;
18748;SDS011;9503;53.560;10.246;2023-06-10T11:46:41;8.50;;;4.35;;
18748;SDS011;9503;53.560;10.246;2023-06-10T11:49:08;7.70;;;4.35;;
18748;SDS011;9503;53.560;10.246;2023-06-10T11:51:35;9.38;;;4.30;;
18748;SDS011;9503;53.560;10.246;2023-06-10T11:54:04;7.65;;;4.28;;
18748;SDS011;9503;53.560;10.246;2023-06-10T11:56:31;5.95;;;4.15;;
18748;SDS011;9503;53.560;10.246;2023-06-10T11:58:59;9.18;;;4.35;;
18748;SDS011;9503;53.560;10.246;2023-06-10T12:01:31;6.53;;;4.20;;
18748;SDS011;9503;53.560;10.246;2023-06-10T12:03:59;9.85;;;4.57;;
18748;SDS011;9503;53.560;10.246;2023-06-10T12:06:27;8.13;;;4.35;;
18748;SDS011;9503;53.560;10.246;2023-06-10T12:09:03;8.05;;;4.30;;
18748;SDS011;9503;53.560;10.246;2023-06-10T12:11:30;9.80;;;4.35;;
18748;SDS011;9503;53.560;10.246;2023-06-10T12:13:57;6.07;;;3.97;;
18748;SDS011;9503;53.560;10.246;2023-06-10T12:16:23;6.68;;;4.47;;
18748;SDS011;9503;53.560;10.246;2023-06-10T12:19:00;6.55;;;4.43;;
18748;SDS011;9503;53.560;10.246;2023-06-10T12:21:28;9.15;;;4.15;;
18748;SDS011;9503;53.560;10.246;2023-06-10T12:24:01;6.30;;;4.40;;
18748;SDS011;9503;53.560;10.246;2023-06-10T12:26:41;7.70;;;4.22;;
18748;SDS011;9503;53.560;10.246;2023-06-10T12:29:16;9.15;;;4.35;;
18748;SDS011;9503;53.560;10.246;2023-06-10T12:31:52;8.68;;;4.07;;
18748;SDS011;9503;53.560;10.246;2023-06-10T12:34:20;9.15;;;4.32;;
18748;SDS011;9503;53.560;10.246;2023-06-10T12:36:54;7.00;;;3.90;;
18748;SDS011;9503;53.560;10.246;2023-06-10T12:39:21;6.60;;;4.00;;
18748;SDS011;9503;53.560;10.246;2023-06-10T12:41:47;7.90;;;4.35;;
18748;SDS011;9503;53.560;10.246;2023-06-10T12:44:14;6.97;;;4.22;;
18748;SDS011;9503;53.560;10.246;2023-06-10T12:46:41;11.52;;;4.93;;
18748;SDS011;9503;53.560;10.246;2023-06-10T12:49:08;5.65;;;3.88;;
18748;SDS011;9503;53.560;10.246;2023-06-10T12:51:46;7.40;;;4.30;;
18748;SDS011;9503;53.560;10.246;2023-06-10T12:54:13;8.60;;;4.38;;
18748;SDS011;9503;53.560;10.246;2023-06-10T12:56:40;7.25;;;4.32;;
18748;SDS011;9503;53.560;10.246;2023-06-10T12:59:06;4.82;;;4.15;;
18748;SDS011;9503;53.560;10.246;2023-06-10T13:01:33;7.00;;;4.10;;
18748;SDS011;9503;53.560;10.246;2023-06-10T13:04:00;8.07;;;4.28;;
18748;SDS011;9503;53.560;10.246;2023-06-10T13:06:27;7.30;;;3.72;;
18748;SDS011;9503;53.560;10.246;2023-06-10T13:08:55;7.60;;;3.97;;
18748;SDS011;9503;53.560;10.246;2023-06-10T13:11:22;8.27;;;3.97;;
18748;SDS011;9503;53.560;10.246;2023-06-10T13:13:50;9.10;;;4.30;;
18748;SDS011;9503;53.560;10.246;2023-06-10T13:16:17;7.72;;;3.70;;
18748;SDS011;9503;53.560;10.246;2023-06-10T13:18:43;6.28;;;4.05;;
18748;SDS011;9503;53.560;10.246;2023-06-10T13:21:11;7.32;;;3.65;;
18748;SDS011;9503;53.560;10.246;2023-06-10T13:23:37;8.07;;;3.50;;
18748;SDS011;9503;53.560;10.246;2023-06-10T13:26:05;9.00;;;3.85;;
18748;SDS011;9503;53.560;10.246;2023-06-10T13:28:32;6.78;;;3.83;;
18748;SDS011;9503;53.560;10.246;2023-06-10T13:30:59;11.25;;;3.70;;
18748;SDS011;9503;53.560;10.246;2023-06-10T13:33:25;11.45;;;3.35;;
18748;SDS011;9503;53.560;10.246;2023-06-10T13:35:52;7.63;;;3.72;;
18748;SDS011;9503;53.560;10.246;2023-06-10T13:38:18;10.80;;;3.65;;
18748;SDS011;9503;53.560;10.246;2023-06-10T13:40:45;8.10;;;3.50;;
18748;SDS011;9503;53.560;10.246;2023-06-10T13:43:13;7.10;;;3.40;;
18748;SDS011;9503;53.560;10.246;2023-06-10T13:45:40;10.98;;;3.42;;
18748;SDS011;9503;53.560;10.246;2023-06-10T13:48:07;9.80;;;3.70;;
18748;SDS011;9503;53.560;10.246;2023-06-10T13:50:34;6.75;;;3.30;;
18748;SDS011;9503;53.560;10.246;2023-06-10T13:53:00;14.60;;;3.80;;
18748;SDS011;9503;53.560;10.246;2023-06-10T13:55:27;6.95;;;3.25;;
18748;SDS011;9503;53.560;10.246;2023-06-10T13:57:53;10.20;;;3.38;;
18748;SDS011;9503;53.560;10.246;2023-06-10T14:00:21;9.63;;;3.33;;
18748;SDS011;9503;53.560;10.246;2023-06-10T14:02:48;8.65;;;3.67;;
18748;SDS011;9503;53.560;10.246;2023-06-10T14:05:15;8.65;;;3.47;;
18748;SDS011;9503;53.560;10.246;2023-06-10T14:07:41;8.38;;;3.53;;
18748;SDS011;9503;53.560;10.246;2023-06-10T14:10:08;12.10;;;3.90;;
18748;SDS011;9503;53.560;10.246;2023-06-10T14:12:35;8.82;;;3.20;;
18748;SDS011;9503;53.560;10.246;2023-06-10T14:15:02;6.90;;;3.30;;
18748;SDS011;9503;53.560;10.246;2023-06-10T14:17:30;6.07;;;3.10;;
18748;SDS011;9503;53.560;10.246;2023-06-10T14:19:57;9.98;;;3.70;;
18748;SDS011;9503;53.560;10.246;2023-06-10T14:22:23;7.68;;;3.63;;
18748;SDS011;9503;53.560;10.246;2023-06-10T14:24:50;9.75;;;3.28;;
18748;SDS011;9503;53.560;10.246;2023-06-10T14:27:16;6.88;;;3.10;;
18748;SDS011;9503;53.560;10.246;2023-06-10T14:29:43;11.15;;;3.42;;
18748;SDS011;9503;53.560;10.246;2023-06-10T14:32:10;8.15;;;3.15;;
18748;SDS011;9503;53.560;10.246;2023-06-10T14:34:38;8.50;;;3.10;;
18748;SDS011;9503;53.560;10.246;2023-06-10T14:37:06;10.80;;;3.30;;
18748;SDS011;9503;53.560;10.246;2023-06-10T14:39:33;6.07;;;3.08;;
18748;SDS011;9503;53.560;10.246;2023-06-10T14:42:00;10.98;;;3.80;;
18748;SDS011;9503;53.560;10.246;2023-06-10T14:44:26;9.32;;;3.72;;
18748;SDS011;9503;53.560;10.246;2023-06-10T14:46:53;12.50;;;3.70;;